Forside
METAR-TAF:

METAR-TAF

Lufthavne :

Anoka County-Blaine Airport (Janes Field)

Minneapolis / Blaine, Minnesota, USA

Breddekreds: 45-09N, længdekreds: 093-13W, højde: 278 m

Aktuelle vejr

Denne rapport blev lavet for 25 minutter siden, kl. 11:35 UTC
Vind 9 kt fra sydøst
Temperatur 1°C
Fugtighed 100%
Tryk 1016 hPa
Sigt: 8.0 km
Overskyet i en højde af 1000 ft
dis

METAR: KANE 241135Z AUTO 13009KT 5SM BR OVC010 01/01 A3001 RMK AO2

Tid: 06:00 (12:00 UTC)


TAF: fraværende

Vejrobservationer og prognoser fra mere end 4000 lufthavne (METAR og TAF).

De gule og røde prikker repræsenterer de meteorologiske stationer.

Flyt musen over at se navnet på stationen.

Så klik over at se vejr observationer og prognoser.

At skifte det kort: Klik på de grønne knapper med et sort kors for at zoome ind; på den grønne knap med en bindestreg for at zoome ud; eller på de grønne pile for tilstødende kort.


METAR-TAF: